Flight Track Log - Related Links

Times and Time Zones

All times are in EDT time to prevent confusion due to time zone crossing. See the UAL690 flight status page for this flight to view local times or setup timezone preferences in your user account.

Time Position Orientation Groundspeed Altitude Reporting Facility
EDT Latitude Longitude Course Direction KTS MPH feet Rate Location/Type
Mon 08:18:21 PM 42.0000 -87.8500 90° East 168 193 2,500  Level Chicago TRACON
Mon 08:19:15 PM 42.0000 -87.7833 90° East 247 284 4,300 3,236 Climbing Chicago TRACON
Mon 08:21:00 PM 41.9411 -87.2504 96° East  Level FlightAware Approximate
Mon 08:21:19 PM 41.9864 -87.5453 94° East 317 365 12,100  Level Chicago Center
Mon 08:22:00 PM 41.9333 -87.0882 90° East  Level FlightAware Approximate
Mon 08:22:22 PM 41.9744 -87.4044 96° East 372 428 13,900  Level Chicago Center
Mon 08:23:00 PM 41.9334 -86.9253 90° East  Level FlightAware Approximate
Mon 08:23:24 PM 41.9594 -87.2342 97° East 450 518 15,900  Level Chicago Center
Mon 08:24:26 PM 41.9453 -87.0558 96° East 476 548 18,600 2,371 Climbing Chicago Center
Mon 08:25:28 PM 41.9219 -86.8692 99° East 502 578 20,800 1,645 Climbing Chicago Center
Mon 08:26:30 PM 41.8783 -86.6694 106° East 516 594 22,000 1,355 Climbing Chicago Center
Mon 08:27:32 PM 41.8403 -86.4794 105° East 525 604 23,600 1,548 Climbing Chicago Center
Mon 08:28:34 PM 41.8028 -86.2839 104° East 541 623 25,200 1,403 Climbing Chicago Center
Mon 08:29:36 PM 41.8014 -86.0789 90° East 546 628 26,500 871 Climbing Chicago Center
Mon 08:30:38 PM 41.7983 -85.8311 91° East 552 635 27,000 919 Climbing Chicago Center
Mon 08:31:40 PM 41.7972 -85.6219 90° East 556 640 28,400 1,645 Climbing Chicago Center
Mon 08:32:42 PM 41.7947 -85.4119 91° East 552 635 30,400 1,694 Climbing Chicago Center
Mon 08:33:44 PM 41.7919 -85.2047 91° East 545 627 31,900 1,379 Climbing Chicago Center
Mon 08:34:09 PM 41.7933 -85.1094 89° East 558 642 32,400 1,392 Climbing Cleveland Center
Mon 08:35:49 PM 41.7853 -84.7883 92° East 558 642 34,800 1,300 Climbing Chicago Center
Mon 08:36:09 PM 41.7839 -84.7022 91° East 553 636 35,000 152 Climbing Cleveland Center
Mon 08:37:08 PM 41.7806 -84.4986 91° East 553 636 35,000  Level Cleveland Center
Mon 08:38:09 PM 41.7789 -84.2925 91° East 553 636 35,000  Level Cleveland Center
Mon 08:39:08 PM 41.7742 -84.1139 92° East 553 636 35,000  Level Cleveland Center
Mon 08:40:08 PM 41.7719 -83.9078 91° East 548 631 35,000 -50 Level Cleveland Center
Mon 08:41:08 PM 41.7694 -83.7069 91° East 553 636 34,900  Descending Cleveland Center
Mon 08:42:08 PM 41.7608 -83.4783 93° East 558 642 35,000 50 Climbing Cleveland Center
Mon 08:43:08 PM 41.7428 -83.2769 97° East 553 636 35,000 -50 Level Cleveland Center
Mon 08:44:08 PM 41.7244 -83.0761 97° East 553 636 34,900 -50 Descending Cleveland Center
Mon 08:45:08 PM 41.7036 -82.8750 98° East 548 631 34,900 50 Level Cleveland Center
Mon 08:46:08 PM 41.6844 -82.6711 97° East 548 631 35,000 50 Climbing Cleveland Center
Mon 08:47:08 PM 41.6631 -82.4731 98° East 542 624 35,000  Level Cleveland Center
Mon 08:48:08 PM 41.6428 -82.2919 98° East 542 624 35,000  Level Cleveland Center
Mon 08:49:08 PM 41.6206 -82.0914 98° East 542 624 35,000  Level Cleveland Center
Mon 08:50:08 PM 41.5983 -81.8714 98° East 542 624 35,000  Level Cleveland Center
Mon 08:51:09 PM 41.5753 -81.6711 99° East 547 629 35,000  Level Cleveland Center
Mon 08:52:09 PM 41.5522 -81.4711 99° East 542 624 35,000  Level Cleveland Center
Mon 08:53:08 PM 41.5306 -81.2656 98° East 542 624 35,000 -34 Level Cleveland Center
Mon 08:55:08 PM 41.4925 -80.8908 98° East 543 625 34,900 -33 Descending Cleveland Center
Mon 08:56:09 PM 41.4742 -80.6911 97° East 543 625 34,900 50 Level Cleveland Center
Mon 08:57:09 PM 41.4575 -80.4944 96° East 537 618 35,000  Climbing Cleveland Center
Mon 08:58:09 PM 41.4386 -80.2922 97° East 537 618 34,900  Descending Cleveland Center
Mon 08:59:08 PM 41.4192 -80.0958 97° East 537 618 35,000  Climbing Cleveland Center
Mon 09:00:08 PM 41.3992 -79.8800 97° East 537 618 34,900 -50 Descending Cleveland Center
Mon 09:01:08 PM 41.3789 -79.6783 98° East 542 624 34,900 50 Level Cleveland Center
Mon 09:02:08 PM 41.3606 -79.4794 97° East 542 624 35,000  Climbing Cleveland Center
Mon 09:03:08 PM 41.3397 -79.2889 98° East 537 618 34,900 -198 Descending Cleveland Center
Mon 09:04:09 PM 41.3186 -79.0958 98° East 525 604 34,600 -950 Descending Cleveland Center
Mon 09:05:08 PM 41.3014 -78.9053 97° East 519 597 33,000 -807 Descending Cleveland Center
Mon 09:06:08 PM 41.2819 -78.7125 98° East 519 597 33,000 -50 Level Cleveland Center
Mon 09:07:08 PM 41.2578 -78.5197 99° East 519 597 32,900  Descending Cleveland Center
Mon 09:08:18 PM 41.2353 -78.3231 99° East 505 581 33,000 47 Climbing New York Center
Mon 09:09:16 PM 41.2142 -78.1303 98° East 518 596 33,000  Level New York Center
Mon 09:10:16 PM 41.1906 -77.9372 99° East 525 604 33,000  Level New York Center
Mon 09:11:16 PM 41.1664 -77.7472 100° East 525 604 33,000  Level New York Center
Mon 09:12:17 PM 41.1422 -77.5544 99° East 530 610 33,000  Level New York Center
Mon 09:13:17 PM 41.1122 -77.3478 101° East 525 604 33,000  Level New York Center
Mon 09:14:15 PM 41.0892 -77.1556 99° East 525 604 33,000 -454 Level New York Center
Mon 09:15:16 PM 41.0617 -76.9683 101° East 525 604 32,100 -2,182 Descending New York Center
Mon 09:16:16 PM 41.0364 -76.7736 100° East 525 604 28,600 -3,541 Descending New York Center
Mon 09:17:18 PM 41.0039 -76.5892 103° East 519 597 24,900 -3,393 Descending New York Center
Mon 09:18:18 PM 40.9656 -76.4319 108° East 510 587 21,700 -3,277 Descending New York Center
Mon 09:19:17 PM 40.9278 -76.2639 107° East 487 560 18,400 -2,667 Descending New York Center
Mon 09:20:15 PM 40.8892 -76.1044 108° East 470 541 16,500 -1,800 Descending New York Center
Mon 09:21:17 PM 40.8486 -75.9394 108° East 470 541 14,800 -1,610 Descending New York Center
Mon 09:22:18 PM 40.8094 -75.7828 108° East 460 529 13,200 -942 Descending New York Center
Mon 09:23:18 PM 40.7722 -75.6294 108° East 416 479 12,900 -154 Descending New York Center
Mon 09:24:15 PM 40.7378 -75.4981 109° East 410 472 12,900 -403 Level New York Center
Mon 09:25:17 PM 40.6931 -75.3664 114° Southeast 400 460 12,100 -829 Descending New York Center
Mon 09:26:18 PM 40.6442 -75.2236 114° Southeast 400 460 11,200 -792 Descending New York Center
Mon 09:27:56 PM 40.5667 -75.0000 114° Southeast 382 440 10,000 -650 Descending New York TRACON
Mon 09:28:18 PM 40.5558 -74.9639 112° Southeast 387 445 9,900  Descending New York Center
Mon 09:28:56 PM 40.5333 -74.8667 107° East 383 441 10,000 61 Climbing New York TRACON
Mon 09:29:56 PM 40.4833 -74.7500 119° Southeast 383 441 10,000  Level New York TRACON
Mon 09:30:50 PM 40.4500 -74.6333 111° Southeast 376 433 10,000 -526 Level New York TRACON
Mon 09:31:50 PM 40.4333 -74.5167 101° East 326 375 9,000 -1,000 Descending New York TRACON
Mon 09:32:50 PM 40.4667 -74.4167 66° East 305 351 8,000 -950 Descending New York TRACON
Mon 09:33:50 PM 40.4833 -74.3167 78° East 298 343 7,100 -500 Descending New York TRACON
Mon 09:34:50 PM 40.5167 -74.2000 69° East 300 345 7,000 -650 Descending New York TRACON
Mon 09:35:50 PM 40.5667 -74.1167 52° Northeast 298 343 5,800 -1,400 Descending New York TRACON
Mon 09:36:50 PM 40.6333 -74.0500 37° Northeast 291 335 4,200 -900 Descending New York TRACON
Mon 09:37:50 PM 40.7000 -74.0333 11° North 289 333 4,000 -100 Descending New York TRACON
Mon 09:38:50 PM 40.7833 -74.0000 17° North 288 331 4,000  Level New York TRACON
Mon 09:39:50 PM 40.8500 -73.9500 30° Northeast 289 333 4,000  Level New York TRACON
Mon 09:40:50 PM 40.9167 -73.9167 21° North 249 287 4,000  Level New York TRACON
Mon 09:41:50 PM 40.9833 -73.8833 21° North 214 246 4,000 -50 Level New York TRACON
Mon 09:42:50 PM 40.9833 -73.8333 90° East 211 243 3,900 -450 Descending New York TRACON
Mon 09:43:50 PM 40.9500 -73.7833 131° Southeast 180 207 3,100 -850 Descending New York TRACON
Mon 09:44:50 PM 40.9167 -73.7833 180° South 144 166 2,200 -900 Descending New York TRACON

Login

Don't have an account? Register now (free) for customized features, flight alerts, and more!